sensor_id;sensor_type;location;lat;lon;timestamp;temperature;humidity
61398;DHT22;47267;48.130;-2.040;2023-03-14T00:01:23;20.00;51.20
61398;DHT22;47267;48.130;-2.040;2023-03-14T00:03:49;20.00;51.20
61398;DHT22;47267;48.130;-2.040;2023-03-14T00:06:16;20.00;51.20
61398;DHT22;47267;48.130;-2.040;2023-03-14T00:08:43;20.00;51.20
61398;DHT22;47267;48.130;-2.040;2023-03-14T00:11:13;20.00;51.10
61398;DHT22;47267;48.130;-2.040;2023-03-14T00:13:39;20.00;51.20
61398;DHT22;47267;48.130;-2.040;2023-03-14T00:16:08;20.00;51.20
61398;DHT22;47267;48.130;-2.040;2023-03-14T00:18:34;20.00;51.20
61398;DHT22;47267;48.130;-2.040;2023-03-14T00:21:01;20.00;51.20
61398;DHT22;47267;48.130;-2.040;2023-03-14T00:23:28;20.00;51.20
61398;DHT22;47267;48.130;-2.040;2023-03-14T00:25:59;20.00;51.20
61398;DHT22;47267;48.130;-2.040;2023-03-14T00:28:25;20.10;51.20
61398;DHT22;47267;48.130;-2.040;2023-03-14T00:30:51;20.00;51.20
61398;DHT22;47267;48.130;-2.040;2023-03-14T00:33:17;20.10;51.20
61398;DHT22;47267;48.130;-2.040;2023-03-14T00:35:43;20.00;51.20
61398;DHT22;47267;48.130;-2.040;2023-03-14T00:38:08;20.00;51.10
61398;DHT22;47267;48.130;-2.040;2023-03-14T00:40:34;20.00;51.10
61398;DHT22;47267;48.130;-2.040;2023-03-14T00:43:04;20.10;51.20
61398;DHT22;47267;48.130;-2.040;2023-03-14T00:45:29;20.10;51.20
61398;DHT22;47267;48.130;-2.040;2023-03-14T00:47:55;20.10;51.20
61398;DHT22;47267;48.130;-2.040;2023-03-14T00:50:21;20.10;51.20
61398;DHT22;47267;48.130;-2.040;2023-03-14T00:52:46;20.10;51.20
61398;DHT22;47267;48.130;-2.040;2023-03-14T00:55:14;20.10;51.20
61398;DHT22;47267;48.130;-2.040;2023-03-14T00:57:39;20.10;51.20
61398;DHT22;47267;48.130;-2.040;2023-03-14T01:00:05;20.10;51.20
61398;DHT22;47267;48.130;-2.040;2023-03-14T01:02:33;20.10;51.10
61398;DHT22;47267;48.130;-2.040;2023-03-14T01:04:59;20.10;51.20
61398;DHT22;47267;48.130;-2.040;2023-03-14T01:07:24;20.10;51.20
61398;DHT22;47267;48.130;-2.040;2023-03-14T01:09:52;20.10;51.10
61398;DHT22;47267;48.130;-2.040;2023-03-14T01:12:18;20.10;51.20
61398;DHT22;47267;48.130;-2.040;2023-03-14T01:14:43;20.10;51.20
61398;DHT22;47267;48.130;-2.040;2023-03-14T01:17:09;20.10;51.20
61398;DHT22;47267;48.130;-2.040;2023-03-14T01:19:35;20.10;51.10
61398;DHT22;47267;48.130;-2.040;2023-03-14T01:22:00;20.10;51.10
61398;DHT22;47267;48.130;-2.040;2023-03-14T01:24:26;20.10;51.20
61398;DHT22;47267;48.130;-2.040;2023-03-14T01:26:52;20.10;51.10
61398;DHT22;47267;48.130;-2.040;2023-03-14T01:29:17;20.10;51.10
61398;DHT22;47267;48.130;-2.040;2023-03-14T01:31:43;20.10;51.20
61398;DHT22;47267;48.130;-2.040;2023-03-14T01:34:09;20.10;51.20
61398;DHT22;47267;48.130;-2.040;2023-03-14T01:36:35;20.10;51.10
61398;DHT22;47267;48.130;-2.040;2023-03-14T01:39:00;20.10;51.10
61398;DHT22;47267;48.130;-2.040;2023-03-14T01:41:26;20.10;51.10
61398;DHT22;47267;48.130;-2.040;2023-03-14T01:43:52;20.10;51.10
61398;DHT22;47267;48.130;-2.040;2023-03-14T01:46:38;20.10;51.10
61398;DHT22;47267;48.130;-2.040;2023-03-14T01:54:35;20.10;51.10
61398;DHT22;47267;48.130;-2.040;2023-03-14T01:57:11;20.10;51.10
61398;DHT22;47267;48.130;-2.040;2023-03-14T01:59:41;20.10;51.10
61398;DHT22;47267;48.130;-2.040;2023-03-14T02:02:10;20.10;51.10
61398;DHT22;47267;48.130;-2.040;2023-03-14T02:04:38;20.10;51.10
61398;DHT22;47267;48.130;-2.040;2023-03-14T02:07:55;20.10;51.10
61398;DHT22;47267;48.130;-2.040;2023-03-14T02:10:02;20.10;51.10
61398;DHT22;47267;48.130;-2.040;2023-03-14T02:12:28;20.10;51.10
61398;DHT22;47267;48.130;-2.040;2023-03-14T02:14:54;20.10;51.00
61398;DHT22;47267;48.130;-2.040;2023-03-14T02:17:21;20.10;51.00
61398;DHT22;47267;48.130;-2.040;2023-03-14T02:22:22;20.10;51.00
61398;DHT22;47267;48.130;-2.040;2023-03-14T02:27:42;20.10;51.00
61398;DHT22;47267;48.130;-2.040;2023-03-14T02:30:12;20.10;51.00
61398;DHT22;47267;48.130;-2.040;2023-03-14T02:32:42;20.10;51.00
61398;DHT22;47267;48.130;-2.040;2023-03-14T02:35:18;20.10;51.00
61398;DHT22;47267;48.130;-2.040;2023-03-14T02:37:53;20.10;51.00
61398;DHT22;47267;48.130;-2.040;2023-03-14T02:40:20;20.10;51.00
61398;DHT22;47267;48.130;-2.040;2023-03-14T02:42:46;20.10;51.00
61398;DHT22;47267;48.130;-2.040;2023-03-14T02:47:44;20.10;51.00
61398;DHT22;47267;48.130;-2.040;2023-03-14T02:50:20;20.10;51.00
61398;DHT22;47267;48.130;-2.040;2023-03-14T02:52:46;20.10;51.00
61398;DHT22;47267;48.130;-2.040;2023-03-14T02:55:12;20.10;51.00
61398;DHT22;47267;48.130;-2.040;2023-03-14T02:57:38;20.10;51.00
61398;DHT22;47267;48.130;-2.040;2023-03-14T03:00:04;20.10;51.00
61398;DHT22;47267;48.130;-2.040;2023-03-14T03:02:31;20.10;51.00
61398;DHT22;47267;48.130;-2.040;2023-03-14T03:04:56;20.10;51.00
61398;DHT22;47267;48.130;-2.040;2023-03-14T03:07:22;20.10;51.00
61398;DHT22;47267;48.130;-2.040;2023-03-14T03:09:48;20.10;51.00
61398;DHT22;47267;48.130;-2.040;2023-03-14T03:12:14;20.10;51.00
61398;DHT22;47267;48.130;-2.040;2023-03-14T03:14:39;20.10;51.00
61398;DHT22;47267;48.130;-2.040;2023-03-14T03:17:05;20.10;51.00
61398;DHT22;47267;48.130;-2.040;2023-03-14T03:19:32;20.10;51.00
61398;DHT22;47267;48.130;-2.040;2023-03-14T03:21:58;20.10;50.90
61398;DHT22;47267;48.130;-2.040;2023-03-14T03:24:25;20.00;50.90
61398;DHT22;47267;48.130;-2.040;2023-03-14T03:26:51;20.10;51.00
61398;DHT22;47267;48.130;-2.040;2023-03-14T03:29:16;20.10;50.90
61398;DHT22;47267;48.130;-2.040;2023-03-14T03:31:42;20.00;50.90
61398;DHT22;47267;48.130;-2.040;2023-03-14T03:34:11;20.00;50.90
61398;DHT22;47267;48.130;-2.040;2023-03-14T03:36:37;20.00;50.90
61398;DHT22;47267;48.130;-2.040;2023-03-14T03:39:03;20.10;50.90
61398;DHT22;47267;48.130;-2.040;2023-03-14T03:41:29;20.10;50.90
61398;DHT22;47267;48.130;-2.040;2023-03-14T03:43:56;20.00;50.90
61398;DHT22;47267;48.130;-2.040;2023-03-14T03:46:21;20.00;50.90
61398;DHT22;47267;48.130;-2.040;2023-03-14T03:48:47;20.00;50.90
61398;DHT22;47267;48.130;-2.040;2023-03-14T03:51:14;20.10;50.90
61398;DHT22;47267;48.130;-2.040;2023-03-14T03:53:41;20.00;50.90
61398;DHT22;47267;48.130;-2.040;2023-03-14T03:56:08;20.00;50.80
61398;DHT22;47267;48.130;-2.040;2023-03-14T03:58:34;20.00;50.80
61398;DHT22;47267;48.130;-2.040;2023-03-14T04:00:59;20.00;50.80
61398;DHT22;47267;48.130;-2.040;2023-03-14T04:03:25;20.00;50.90
61398;DHT22;47267;48.130;-2.040;2023-03-14T04:06:02;20.00;50.80
61398;DHT22;47267;48.130;-2.040;2023-03-14T04:08:28;20.00;50.80
61398;DHT22;47267;48.130;-2.040;2023-03-14T04:10:58;20.00;50.80
61398;DHT22;47267;48.130;-2.040;2023-03-14T04:13:25;20.00;50.80
61398;DHT22;47267;48.130;-2.040;2023-03-14T04:15:51;20.00;50.80
61398;DHT22;47267;48.130;-2.040;2023-03-14T04:18:17;20.00;50.80
61398;DHT22;47267;48.130;-2.040;2023-03-14T04:20:43;20.00;50.80
61398;DHT22;47267;48.130;-2.040;2023-03-14T04:23:09;20.00;50.80
61398;DHT22;47267;48.130;-2.040;2023-03-14T04:25:34;20.00;50.80
61398;DHT22;47267;48.130;-2.040;2023-03-14T04:28:00;20.00;50.80
61398;DHT22;47267;48.130;-2.040;2023-03-14T04:30:26;20.00;50.80
61398;DHT22;47267;48.130;-2.040;2023-03-14T04:32:52;20.00;50.70
61398;DHT22;47267;48.130;-2.040;2023-03-14T04:35:17;20.00;50.80
61398;DHT22;47267;48.130;-2.040;2023-03-14T04:37:43;20.00;50.80
61398;DHT22;47267;48.130;-2.040;2023-03-14T04:40:10;20.00;50.70
61398;DHT22;47267;48.130;-2.040;2023-03-14T04:42:36;20.00;50.70
61398;DHT22;47267;48.130;-2.040;2023-03-14T04:45:02;20.00;50.70
61398;DHT22;47267;48.130;-2.040;2023-03-14T04:47:28;20.00;50.70
61398;DHT22;47267;48.130;-2.040;2023-03-14T04:49:54;20.00;50.70
61398;DHT22;47267;48.130;-2.040;2023-03-14T04:52:20;20.00;50.70
61398;DHT22;47267;48.130;-2.040;2023-03-14T04:54:45;19.90;50.60
61398;DHT22;47267;48.130;-2.040;2023-03-14T04:57:11;19.90;50.70
61398;DHT22;47267;48.130;-2.040;2023-03-14T04:59:37;19.90;50.70
61398;DHT22;47267;48.130;-2.040;2023-03-14T05:02:02;19.90;50.70
61398;DHT22;47267;48.130;-2.040;2023-03-14T05:04:28;19.90;50.70
61398;DHT22;47267;48.130;-2.040;2023-03-14T05:06:54;19.90;50.60
61398;DHT22;47267;48.130;-2.040;2023-03-14T05:09:20;19.90;50.60
61398;DHT22;47267;48.130;-2.040;2023-03-14T05:11:46;19.90;50.60
61398;DHT22;47267;48.130;-2.040;2023-03-14T05:14:11;19.90;50.60
61398;DHT22;47267;48.130;-2.040;2023-03-14T05:16:37;19.90;50.60
61398;DHT22;47267;48.130;-2.040;2023-03-14T05:19:03;19.90;50.60
61398;DHT22;47267;48.130;-2.040;2023-03-14T05:21:28;19.90;50.60
61398;DHT22;47267;48.130;-2.040;2023-03-14T05:23:54;19.90;50.60
61398;DHT22;47267;48.130;-2.040;2023-03-14T05:26:20;19.90;50.60
61398;DHT22;47267;48.130;-2.040;2023-03-14T05:28:45;19.90;50.60
61398;DHT22;47267;48.130;-2.040;2023-03-14T05:31:11;19.90;50.60
61398;DHT22;47267;48.130;-2.040;2023-03-14T05:33:37;19.90;50.60
61398;DHT22;47267;48.130;-2.040;2023-03-14T05:36:03;19.90;50.60
61398;DHT22;47267;48.130;-2.040;2023-03-14T05:38:29;19.90;50.60
61398;DHT22;47267;48.130;-2.040;2023-03-14T05:40:54;19.90;50.60
61398;DHT22;47267;48.130;-2.040;2023-03-14T05:43:20;19.90;50.50
61398;DHT22;47267;48.130;-2.040;2023-03-14T05:45:46;19.90;50.60
61398;DHT22;47267;48.130;-2.040;2023-03-14T05:48:11;19.80;50.50
61398;DHT22;47267;48.130;-2.040;2023-03-14T05:50:37;19.80;50.50
61398;DHT22;47267;48.130;-2.040;2023-03-14T05:53:03;19.80;50.50
61398;DHT22;47267;48.130;-2.040;2023-03-14T05:55:29;19.80;50.50
61398;DHT22;47267;48.130;-2.040;2023-03-14T05:57:54;19.80;50.40
61398;DHT22;47267;48.130;-2.040;2023-03-14T06:00:21;19.80;50.40
61398;DHT22;47267;48.130;-2.040;2023-03-14T06:02:47;19.80;50.50
61398;DHT22;47267;48.130;-2.040;2023-03-14T06:05:13;19.80;50.50
61398;DHT22;47267;48.130;-2.040;2023-03-14T06:07:39;19.80;50.40
61398;DHT22;47267;48.130;-2.040;2023-03-14T06:10:05;19.80;50.40
61398;DHT22;47267;48.130;-2.040;2023-03-14T06:12:31;19.80;50.40
61398;DHT22;47267;48.130;-2.040;2023-03-14T06:14:56;19.80;50.40
61398;DHT22;47267;48.130;-2.040;2023-03-14T06:17:22;19.80;50.40
61398;DHT22;47267;48.130;-2.040;2023-03-14T06:19:48;19.80;50.40
61398;DHT22;47267;48.130;-2.040;2023-03-14T06:22:13;19.80;50.40
61398;DHT22;47267;48.130;-2.040;2023-03-14T06:24:39;19.80;50.40
61398;DHT22;47267;48.130;-2.040;2023-03-14T06:27:05;19.80;50.40
61398;DHT22;47267;48.130;-2.040;2023-03-14T06:29:30;19.70;50.40
61398;DHT22;47267;48.130;-2.040;2023-03-14T06:31:56;19.70;50.30
61398;DHT22;47267;48.130;-2.040;2023-03-14T06:34:22;19.70;50.40
61398;DHT22;47267;48.130;-2.040;2023-03-14T06:36:48;19.70;50.40
61398;DHT22;47267;48.130;-2.040;2023-03-14T06:39:13;19.80;50.30
61398;DHT22;47267;48.130;-2.040;2023-03-14T06:41:39;19.80;50.40
61398;DHT22;47267;48.130;-2.040;2023-03-14T06:44:05;19.70;50.30
61398;DHT22;47267;48.130;-2.040;2023-03-14T06:46:31;19.70;50.30
61398;DHT22;47267;48.130;-2.040;2023-03-14T06:48:56;19.80;50.40
61398;DHT22;47267;48.130;-2.040;2023-03-14T06:51:22;19.70;50.30
61398;DHT22;47267;48.130;-2.040;2023-03-14T06:53:48;19.70;50.30
61398;DHT22;47267;48.130;-2.040;2023-03-14T06:56:14;19.70;50.30
61398;DHT22;47267;48.130;-2.040;2023-03-14T06:58:39;19.70;50.30
61398;DHT22;47267;48.130;-2.040;2023-03-14T07:01:05;19.70;50.30
61398;DHT22;47267;48.130;-2.040;2023-03-14T07:03:32;19.70;50.30
61398;DHT22;47267;48.130;-2.040;2023-03-14T07:05:58;19.70;50.30
61398;DHT22;47267;48.130;-2.040;2023-03-14T07:08:24;19.70;50.30
61398;DHT22;47267;48.130;-2.040;2023-03-14T07:10:50;19.70;50.30
61398;DHT22;47267;48.130;-2.040;2023-03-14T07:13:16;19.70;50.30
61398;DHT22;47267;48.130;-2.040;2023-03-14T07:15:42;19.70;50.20
61398;DHT22;47267;48.130;-2.040;2023-03-14T07:18:08;19.70;50.30
61398;DHT22;47267;48.130;-2.040;2023-03-14T07:20:34;19.70;50.20
61398;DHT22;47267;48.130;-2.040;2023-03-14T07:22:59;19.70;50.30
61398;DHT22;47267;48.130;-2.040;2023-03-14T07:25:26;19.70;50.20
61398;DHT22;47267;48.130;-2.040;2023-03-14T07:27:51;19.70;50.20
61398;DHT22;47267;48.130;-2.040;2023-03-14T07:30:17;19.70;50.20
61398;DHT22;47267;48.130;-2.040;2023-03-14T07:32:43;19.70;50.20
61398;DHT22;47267;48.130;-2.040;2023-03-14T07:35:09;19.70;50.20
61398;DHT22;47267;48.130;-2.040;2023-03-14T07:37:34;19.60;50.20
61398;DHT22;47267;48.130;-2.040;2023-03-14T07:40:00;19.70;50.20
61398;DHT22;47267;48.130;-2.040;2023-03-14T07:42:26;19.60;50.10
61398;DHT22;47267;48.130;-2.040;2023-03-14T07:44:51;19.70;50.20
61398;DHT22;47267;48.130;-2.040;2023-03-14T07:47:17;19.70;50.20
61398;DHT22;47267;48.130;-2.040;2023-03-14T07:49:43;19.70;50.20
61398;DHT22;47267;48.130;-2.040;2023-03-14T07:52:08;19.60;50.10
61398;DHT22;47267;48.130;-2.040;2023-03-14T07:54:34;19.60;50.10
61398;DHT22;47267;48.130;-2.040;2023-03-14T07:57:00;19.60;50.10
61398;DHT22;47267;48.130;-2.040;2023-03-14T07:59:27;19.60;50.10
61398;DHT22;47267;48.130;-2.040;2023-03-14T08:01:52;19.60;50.10
61398;DHT22;47267;48.130;-2.040;2023-03-14T08:04:18;19.60;50.10
61398;DHT22;47267;48.130;-2.040;2023-03-14T08:06:44;19.60;50.10
61398;DHT22;47267;48.130;-2.040;2023-03-14T08:09:10;19.60;50.10
61398;DHT22;47267;48.130;-2.040;2023-03-14T08:11:36;19.60;50.10
61398;DHT22;47267;48.130;-2.040;2023-03-14T08:14:01;19.60;50.10
61398;DHT22;47267;48.130;-2.040;2023-03-14T08:16:27;19.60;50.10
61398;DHT22;47267;48.130;-2.040;2023-03-14T08:18:53;19.60;50.10
61398;DHT22;47267;48.130;-2.040;2023-03-14T08:21:19;19.60;50.00
61398;DHT22;47267;48.130;-2.040;2023-03-14T08:23:44;19.60;50.10
61398;DHT22;47267;48.130;-2.040;2023-03-14T08:26:10;19.60;50.00
61398;DHT22;47267;48.130;-2.040;2023-03-14T08:28:36;19.60;50.10
61398;DHT22;47267;48.130;-2.040;2023-03-14T08:31:02;19.60;50.10
61398;DHT22;47267;48.130;-2.040;2023-03-14T08:33:28;19.60;50.00
61398;DHT22;47267;48.130;-2.040;2023-03-14T08:35:56;19.60;50.00
61398;DHT22;47267;48.130;-2.040;2023-03-14T08:38:21;19.60;50.00
61398;DHT22;47267;48.130;-2.040;2023-03-14T08:40:48;19.60;50.00
61398;DHT22;47267;48.130;-2.040;2023-03-14T08:43:21;19.60;50.00
61398;DHT22;47267;48.130;-2.040;2023-03-14T08:45:46;19.60;50.00
61398;DHT22;47267;48.130;-2.040;2023-03-14T08:48:12;19.60;50.00
61398;DHT22;47267;48.130;-2.040;2023-03-14T08:50:38;19.60;50.00
61398;DHT22;47267;48.130;-2.040;2023-03-14T08:53:04;19.60;50.00
61398;DHT22;47267;48.130;-2.040;2023-03-14T08:55:29;19.60;50.00
61398;DHT22;47267;48.130;-2.040;2023-03-14T08:57:55;19.60;50.00
61398;DHT22;47267;48.130;-2.040;2023-03-14T09:00:21;19.60;50.00
61398;DHT22;47267;48.130;-2.040;2023-03-14T09:02:47;19.60;50.00
61398;DHT22;47267;48.130;-2.040;2023-03-14T09:05:13;19.60;50.00
61398;DHT22;47267;48.130;-2.040;2023-03-14T09:07:39;19.60;50.00
61398;DHT22;47267;48.130;-2.040;2023-03-14T09:10:06;19.60;50.00
61398;DHT22;47267;48.130;-2.040;2023-03-14T09:12:32;19.60;50.00
61398;DHT22;47267;48.130;-2.040;2023-03-14T09:14:58;19.60;50.00
61398;DHT22;47267;48.130;-2.040;2023-03-14T09:17:23;19.60;50.00
61398;DHT22;47267;48.130;-2.040;2023-03-14T09:19:49;19.60;50.00
61398;DHT22;47267;48.130;-2.040;2023-03-14T09:22:15;19.50;49.90
61398;DHT22;47267;48.130;-2.040;2023-03-14T09:24:41;19.60;49.90
61398;DHT22;47267;48.130;-2.040;2023-03-14T09:27:07;19.60;49.90
61398;DHT22;47267;48.130;-2.040;2023-03-14T09:29:33;19.60;50.00
61398;DHT22;47267;48.130;-2.040;2023-03-14T09:31:59;19.60;49.90
61398;DHT22;47267;48.130;-2.040;2023-03-14T09:34:25;19.60;49.90
61398;DHT22;47267;48.130;-2.040;2023-03-14T09:36:51;19.50;49.90
61398;DHT22;47267;48.130;-2.040;2023-03-14T09:39:17;19.60;49.90
61398;DHT22;47267;48.130;-2.040;2023-03-14T09:41:44;19.60;49.90
61398;DHT22;47267;48.130;-2.040;2023-03-14T09:44:19;19.60;49.90
61398;DHT22;47267;48.130;-2.040;2023-03-14T09:46:47;19.60;49.90
61398;DHT22;47267;48.130;-2.040;2023-03-14T09:49:36;19.60;49.90
61398;DHT22;47267;48.130;-2.040;2023-03-14T09:52:21;19.60;49.90
61398;DHT22;47267;48.130;-2.040;2023-03-14T09:54:54;19.50;50.50
61398;DHT22;47267;48.130;-2.040;2023-03-14T09:57:24;19.50;49.90
61398;DHT22;47267;48.130;-2.040;2023-03-14T09:59:53;19.60;50.00
61398;DHT22;47267;48.130;-2.040;2023-03-14T10:02:25;19.60;50.50
61398;DHT22;47267;48.130;-2.040;2023-03-14T10:04:53;19.60;49.90
61398;DHT22;47267;48.130;-2.040;2023-03-14T10:07:28;19.60;49.90
61398;DHT22;47267;48.130;-2.040;2023-03-14T10:09:55;19.50;49.90
61398;DHT22;47267;48.130;-2.040;2023-03-14T10:12:34;19.60;49.90
61398;DHT22;47267;48.130;-2.040;2023-03-14T10:15:04;19.60;49.90
61398;DHT22;47267;48.130;-2.040;2023-03-14T10:17:42;19.60;49.90
61398;DHT22;47267;48.130;-2.040;2023-03-14T10:20:36;19.60;49.90
61398;DHT22;47267;48.130;-2.040;2023-03-14T10:23:05;19.60;49.90
61398;DHT22;47267;48.130;-2.040;2023-03-14T10:25:34;19.60;49.90
61398;DHT22;47267;48.130;-2.040;2023-03-14T10:28:00;19.60;49.90
61398;DHT22;47267;48.130;-2.040;2023-03-14T10:30:40;19.60;49.90
61398;DHT22;47267;48.130;-2.040;2023-03-14T10:33:25;19.60;49.90
61398;DHT22;47267;48.130;-2.040;2023-03-14T10:35:58;19.60;49.90
61398;DHT22;47267;48.130;-2.040;2023-03-14T10:38:43;19.60;49.90
61398;DHT22;47267;48.130;-2.040;2023-03-14T10:41:25;19.60;49.90
61398;DHT22;47267;48.130;-2.040;2023-03-14T10:43:54;19.60;49.90
61398;DHT22;47267;48.130;-2.040;2023-03-14T10:46:23;19.60;49.90
61398;DHT22;47267;48.130;-2.040;2023-03-14T10:48:49;19.60;49.90
61398;DHT22;47267;48.130;-2.040;2023-03-14T10:56:19;19.60;49.90
61398;DHT22;47267;48.130;-2.040;2023-03-14T10:58:47;19.60;49.90
61398;DHT22;47267;48.130;-2.040;2023-03-14T11:09:38;19.60;49.90
61398;DHT22;47267;48.130;-2.040;2023-03-14T11:15:15;19.60;49.80
61398;DHT22;47267;48.130;-2.040;2023-03-14T11:20:41;19.60;49.90
61398;DHT22;47267;48.130;-2.040;2023-03-14T11:28:50;19.60;49.80
61398;DHT22;47267;48.130;-2.040;2023-03-14T11:33:50;19.60;49.90
61398;DHT22;47267;48.130;-2.040;2023-03-14T11:36:31;19.60;49.80
61398;DHT22;47267;48.130;-2.040;2023-03-14T11:38:58;19.60;49.90
61398;DHT22;47267;48.130;-2.040;2023-03-14T11:41:25;19.60;49.80
61398;DHT22;47267;48.130;-2.040;2023-03-14T11:43:56;19.60;49.80
61398;DHT22;47267;48.130;-2.040;2023-03-14T11:46:28;19.60;49.80
61398;DHT22;47267;48.130;-2.040;2023-03-14T11:51:56;19.60;49.80
61398;DHT22;47267;48.130;-2.040;2023-03-14T11:54:34;19.60;49.80
61398;DHT22;47267;48.130;-2.040;2023-03-14T11:57:10;19.60;49.80
61398;DHT22;47267;48.130;-2.040;2023-03-14T12:10:19;19.70;49.90
61398;DHT22;47267;48.130;-2.040;2023-03-14T12:12:45;19.70;49.90
61398;DHT22;47267;48.130;-2.040;2023-03-14T12:15:20;19.60;49.80
61398;DHT22;47267;48.130;-2.040;2023-03-14T12:17:47;19.60;49.80
61398;DHT22;47267;48.130;-2.040;2023-03-14T12:20:20;19.60;49.80
61398;DHT22;47267;48.130;-2.040;2023-03-14T12:23:02;19.70;49.90
61398;DHT22;47267;48.130;-2.040;2023-03-14T12:25:33;19.70;49.90
61398;DHT22;47267;48.130;-2.040;2023-03-14T12:28:20;19.70;49.80
61398;DHT22;47267;48.130;-2.040;2023-03-14T12:30:46;19.70;49.80
61398;DHT22;47267;48.130;-2.040;2023-03-14T12:35:49;19.70;49.80
61398;DHT22;47267;48.130;-2.040;2023-03-14T12:38:21;19.70;49.80
61398;DHT22;47267;48.130;-2.040;2023-03-14T12:43:32;19.70;49.80
61398;DHT22;47267;48.130;-2.040;2023-03-14T12:48:44;19.70;49.80
61398;DHT22;47267;48.130;-2.040;2023-03-14T12:51:57;19.70;49.80
61398;DHT22;47267;48.130;-2.040;2023-03-14T13:05:40;19.80;49.80
61398;DHT22;47267;48.130;-2.040;2023-03-14T13:13:22;19.80;49.90
61398;DHT22;47267;48.130;-2.040;2023-03-14T13:15:49;19.80;49.80
61398;DHT22;47267;48.130;-2.040;2023-03-14T13:18:35;19.80;49.80
61398;DHT22;47267;48.130;-2.040;2023-03-14T13:23:30;19.80;49.80
61398;DHT22;47267;48.130;-2.040;2023-03-14T13:25:57;19.80;49.80
61398;DHT22;47267;48.130;-2.040;2023-03-14T13:28:24;19.80;49.80
61398;DHT22;47267;48.130;-2.040;2023-03-14T13:30:56;19.80;49.80
61398;DHT22;47267;48.130;-2.040;2023-03-14T13:33:23;19.80;49.80
61398;DHT22;47267;48.130;-2.040;2023-03-14T13:38:23;19.80;49.80
61398;DHT22;47267;48.130;-2.040;2023-03-14T13:40:50;19.90;49.90
61398;DHT22;47267;48.130;-2.040;2023-03-14T13:43:31;19.80;49.80
61398;DHT22;47267;48.130;-2.040;2023-03-14T13:46:06;19.80;49.80
61398;DHT22;47267;48.130;-2.040;2023-03-14T13:48:43;19.80;49.80
61398;DHT22;47267;48.130;-2.040;2023-03-14T13:51:13;19.80;49.70
61398;DHT22;47267;48.130;-2.040;2023-03-14T13:53:50;19.90;49.80
61398;DHT22;47267;48.130;-2.040;2023-03-14T13:56:18;19.90;49.80
61398;DHT22;47267;48.130;-2.040;2023-03-14T13:58:45;19.90;49.80
61398;DHT22;47267;48.130;-2.040;2023-03-14T14:01:25;19.90;49.80
61398;DHT22;47267;48.130;-2.040;2023-03-14T14:03:54;19.90;49.80
61398;DHT22;47267;48.130;-2.040;2023-03-14T14:06:31;19.90;49.80
61398;DHT22;47267;48.130;-2.040;2023-03-14T14:09:01;19.90;49.80
61398;DHT22;47267;48.130;-2.040;2023-03-14T14:14:06;19.90;49.80
61398;DHT22;47267;48.130;-2.040;2023-03-14T14:16:35;19.90;49.80
61398;DHT22;47267;48.130;-2.040;2023-03-14T14:19:01;19.90;49.70
61398;DHT22;47267;48.130;-2.040;2023-03-14T14:21:27;19.90;49.80
61398;DHT22;47267;48.130;-2.040;2023-03-14T14:23:53;19.90;49.70
61398;DHT22;47267;48.130;-2.040;2023-03-14T14:26:20;19.90;49.70
61398;DHT22;47267;48.130;-2.040;2023-03-14T14:28:46;20.00;49.80
61398;DHT22;47267;48.130;-2.040;2023-03-14T14:33:45;19.90;49.70
61398;DHT22;47267;48.130;-2.040;2023-03-14T14:38:53;19.90;49.70
61398;DHT22;47267;48.130;-2.040;2023-03-14T14:41:19;19.90;49.70
61398;DHT22;47267;48.130;-2.040;2023-03-14T14:43:48;19.90;49.70
61398;DHT22;47267;48.130;-2.040;2023-03-14T14:46:18;19.90;49.70
61398;DHT22;47267;48.130;-2.040;2023-03-14T14:48:44;20.00;49.70
61398;DHT22;47267;48.130;-2.040;2023-03-14T14:51:23;19.90;49.70
61398;DHT22;47267;48.130;-2.040;2023-03-14T14:53:59;19.90;49.60
61398;DHT22;47267;48.130;-2.040;2023-03-14T14:56:27;19.90;49.60
61398;DHT22;47267;48.130;-2.040;2023-03-14T14:58:58;19.90;49.60
61398;DHT22;47267;48.130;-2.040;2023-03-14T15:01:25;19.90;49.60
61398;DHT22;47267;48.130;-2.040;2023-03-14T15:03:56;19.90;49.60
61398;DHT22;47267;48.130;-2.040;2023-03-14T15:06:24;19.90;49.60
61398;DHT22;47267;48.130;-2.040;2023-03-14T15:08:53;19.90;49.60
61398;DHT22;47267;48.130;-2.040;2023-03-14T15:11:21;19.90;49.50
61398;DHT22;47267;48.130;-2.040;2023-03-14T15:13:51;19.90;49.50
61398;DHT22;47267;48.130;-2.040;2023-03-14T15:16:20;19.90;49.50
61398;DHT22;47267;48.130;-2.040;2023-03-14T15:18:54;19.90;49.50
61398;DHT22;47267;48.130;-2.040;2023-03-14T15:21:21;19.90;49.50
61398;DHT22;47267;48.130;-2.040;2023-03-14T15:23:47;19.90;49.50
61398;DHT22;47267;48.130;-2.040;2023-03-14T15:26:16;19.90;49.50
61398;DHT22;47267;48.130;-2.040;2023-03-14T15:28:42;19.90;49.50
61398;DHT22;47267;48.130;-2.040;2023-03-14T15:31:10;20.00;49.50
61398;DHT22;47267;48.130;-2.040;2023-03-14T15:33:36;19.90;49.40
61398;DHT22;47267;48.130;-2.040;2023-03-14T15:36:04;19.90;49.40
61398;DHT22;47267;48.130;-2.040;2023-03-14T15:38:29;19.90;49.40
61398;DHT22;47267;48.130;-2.040;2023-03-14T15:40:55;19.90;49.40
61398;DHT22;47267;48.130;-2.040;2023-03-14T15:43:21;19.90;49.30
61398;DHT22;47267;48.130;-2.040;2023-03-14T15:45:47;19.90;49.40
61398;DHT22;47267;48.130;-2.040;2023-03-14T15:48:18;19.90;49.40
61398;DHT22;47267;48.130;-2.040;2023-03-14T15:50:44;19.90;49.30
61398;DHT22;47267;48.130;-2.040;2023-03-14T15:53:11;19.90;49.30
61398;DHT22;47267;48.130;-2.040;2023-03-14T15:55:36;19.90;49.30
61398;DHT22;47267;48.130;-2.040;2023-03-14T15:58:02;19.90;49.30
61398;DHT22;47267;48.130;-2.040;2023-03-14T16:00:29;19.90;49.30
61398;DHT22;47267;48.130;-2.040;2023-03-14T16:02:55;19.90;49.30
61398;DHT22;47267;48.130;-2.040;2023-03-14T16:05:21;19.80;49.30
61398;DHT22;47267;48.130;-2.040;2023-03-14T16:07:47;19.80;49.20
61398;DHT22;47267;48.130;-2.040;2023-03-14T16:10:14;19.80;49.20
61398;DHT22;47267;48.130;-2.040;2023-03-14T16:12:41;19.80;49.20
61398;DHT22;47267;48.130;-2.040;2023-03-14T16:15:08;19.80;49.20
61398;DHT22;47267;48.130;-2.040;2023-03-14T16:17:34;19.80;49.20
61398;DHT22;47267;48.130;-2.040;2023-03-14T16:20:00;19.80;49.20
61398;DHT22;47267;48.130;-2.040;2023-03-14T16:22:26;19.80;49.20
61398;DHT22;47267;48.130;-2.040;2023-03-14T16:24:52;19.80;49.20
61398;DHT22;47267;48.130;-2.040;2023-03-14T16:27:18;19.80;49.20
61398;DHT22;47267;48.130;-2.040;2023-03-14T16:29:43;19.70;49.10
61398;DHT22;47267;48.130;-2.040;2023-03-14T16:32:10;19.80;49.20
61398;DHT22;47267;48.130;-2.040;2023-03-14T16:34:39;19.70;49.10
61398;DHT22;47267;48.130;-2.040;2023-03-14T16:37:05;19.70;49.20
61398;DHT22;47267;48.130;-2.040;2023-03-14T16:39:31;19.70;49.20
61398;DHT22;47267;48.130;-2.040;2023-03-14T16:41:57;19.70;49.10
61398;DHT22;47267;48.130;-2.040;2023-03-14T16:44:24;19.70;49.10
61398;DHT22;47267;48.130;-2.040;2023-03-14T16:46:49;19.70;49.10
61398;DHT22;47267;48.130;-2.040;2023-03-14T16:49:15;19.70;49.10
61398;DHT22;47267;48.130;-2.040;2023-03-14T16:51:41;19.70;49.70